Flight Track Log - Related Links

Times and Time Zones

All times are in EDT time to prevent confusion due to time zone crossing. See the LXJ342 flight status page for this flight to view local times or setup timezone preferences in your user account.

Time Position Orientation Groundspeed Altitude Reporting Facility
EDT Latitude Longitude Course Direction KTS MPH feet Rate Location/Type
Thu 04:29:10 PM 27.0378 -81.9422 16° North 218 251 3,000  Level Miami Center
Thu 04:30:10 PM 27.1053 -81.9289 10° North 225 259 4,600 1,350 Climbing Miami Center
Thu 04:31:10 PM 27.1772 -81.8994 20° North 249 287 5,700 700 Climbing Miami Center
Thu 04:32:10 PM 27.2533 -81.8700 19° North 263 303 6,000 400 Climbing Miami Center
Thu 04:33:10 PM 27.3231 -81.8428 19° North 269 310 6,500 850 Climbing Miami Center
Thu 04:34:00 PM 27.5843 -81.7386 16° North  Level FlightAware Approximate
Thu 04:34:10 PM 27.3953 -81.8108 21° North 269 310 7,700  Level Miami Center
Thu 04:35:10 PM 27.4736 -81.7792 20° North 275 316 8,000 750 Climbing Miami Center
Thu 04:36:10 PM 27.5475 -81.7494 20° North 275 316 9,200 2,000 Climbing Miami Center
Thu 04:37:10 PM 27.6344 -81.7133 20° North 292 336 12,000 1,400 Climbing Miami Center
Thu 04:38:10 PM 27.7169 -81.6769 21° North 318 366 12,000  Level Miami Center
Thu 04:39:10 PM 27.8044 -81.6197 30° Northeast 339 390 12,000 500 Level Miami Center
Thu 04:40:10 PM 27.8858 -81.5525 36° Northeast 356 410 13,000 2,000 Climbing Miami Center
Thu 04:41:10 PM 27.9997 -81.5197 14° North 363 418 16,000 2,550 Climbing Miami Center
Thu 04:42:10 PM 28.0989 -81.4839 18° North 375 432 18,100 2,200 Climbing Miami Center
Thu 04:43:10 PM 28.2064 -81.4481 16° North 380 437 20,400 1,950 Climbing Miami Center
Thu 04:44:10 PM 28.2950 -81.4189 16° North 391 450 22,000 1,776 Climbing Miami Center
Thu 04:45:15 PM 28.4372 -81.3722 16° North 410 472 24,100 1,790 Climbing Jacksonville Center
Thu 04:46:14 PM 28.5558 -81.3397 14° North 444 511 25,700 1,613 Climbing Jacksonville Center
Thu 04:47:14 PM 28.6750 -81.3497 356° North 432 497 27,300 1,388 Climbing Jacksonville Center
Thu 04:48:15 PM 28.8003 -81.3619 355° North 432 497 28,500 1,150 Climbing Jacksonville Center
Thu 04:49:14 PM 28.9256 -81.3744 355° North 443 510 29,600 1,059 Climbing Jacksonville Center
Thu 04:50:14 PM 29.0553 -81.3867 355° North 454 522 30,600 992 Climbing Jacksonville Center
Thu 04:51:15 PM 29.1806 -81.3989 355° North 459 528 31,600 1,000 Climbing Jacksonville Center
Thu 04:52:14 PM 29.3081 -81.4136 354° North 459 528 32,600 4,739 Climbing Jacksonville Center
Thu 04:53:14 PM 29.4208 -81.4239 355° North 459 528 41,000 942 Climbing Jacksonville Center
Thu 04:54:15 PM 29.5483 -81.4364 355° North 459 528 34,500 -2,750 Descending Jacksonville Center
Thu 04:55:14 PM 29.6717 -81.4489 355° North 452 520 35,500 3,277 Climbing Jacksonville Center
Thu 04:56:14 PM 29.7928 -81.4589 356° North 441 507 41,000 942 Climbing Jacksonville Center
Thu 04:57:15 PM 29.9119 -81.4717 355° North 435 501 37,400 -1,300 Descending Jacksonville Center
Thu 04:58:14 PM 30.0269 -81.4819 356° North 425 489 38,400 958 Climbing Jacksonville Center
Thu 04:59:14 PM 30.1419 -81.4922 356° North 420 483 39,300 744 Climbing Jacksonville Center
Thu 05:00:15 PM 30.2528 -81.5028 355° North 410 472 39,900 550 Climbing Jacksonville Center
Thu 05:01:14 PM 30.3797 -81.4864 North 410 472 40,400 504 Climbing Jacksonville Center
Thu 05:02:14 PM 30.4881 -81.4414 20° North 400 460 40,900 300 Climbing Jacksonville Center
Thu 05:03:14 PM 30.5981 -81.3914 21° North 412 474 41,000 50 Climbing Jacksonville Center
Thu 05:04:14 PM 30.7081 -81.3439 20° North 417 480 41,000  Level Jacksonville Center
Thu 05:05:14 PM 30.8203 -81.2911 22° Northeast 422 486 41,000  Level Jacksonville Center
Thu 05:06:15 PM 30.9322 -81.2408 21° North 427 491 41,000  Level Jacksonville Center
Thu 05:07:14 PM 31.0444 -81.1881 22° Northeast 427 491 41,000  Level Jacksonville Center
Thu 05:08:15 PM 31.1544 -81.1375 21° North 427 491 41,000  Level Jacksonville Center
Thu 05:09:14 PM 31.2683 -81.0842 22° Northeast 432 497 41,000  Level Jacksonville Center
Thu 05:10:14 PM 31.3761 -81.0311 23° Northeast 424 488 41,000  Level Jacksonville Center
Thu 05:11:14 PM 31.4903 -80.9775 22° Northeast 429 494 41,000  Level Jacksonville Center
Thu 05:12:14 PM 31.6044 -80.9289 20° North 429 494 41,000  Level Jacksonville Center
Thu 05:13:14 PM 31.7142 -80.8753 23° Northeast 429 494 41,000  Level Jacksonville Center
Thu 05:14:14 PM 31.8158 -80.8292 21° North 429 494 41,000  Level Jacksonville Center
Thu 05:15:14 PM 31.9400 -80.7700 22° Northeast 429 494 41,000  Level Jacksonville Center
Thu 05:16:14 PM 32.0519 -80.7183 21° North 429 494 41,000  Level Jacksonville Center
Thu 05:17:14 PM 32.1594 -80.6667 22° Northeast 429 494 41,000  Level Jacksonville Center
Thu 05:18:15 PM 32.2714 -80.6125 22° Northeast 422 486 41,000  Level Jacksonville Center
Thu 05:19:14 PM 32.3808 -80.5606 22° Northeast 427 491 41,000  Level Jacksonville Center
Thu 05:20:14 PM 32.4947 -80.5058 22° Northeast 433 498 41,000  Level Jacksonville Center
Thu 05:21:15 PM 32.6106 -80.4511 22° Northeast 433 498 41,000  Level Jacksonville Center
Thu 05:22:14 PM 32.7244 -80.3961 22° Northeast 439 505 41,000  Level Jacksonville Center
Thu 05:23:14 PM 32.8381 -80.3411 22° Northeast 439 505 41,000  Level Jacksonville Center
Thu 05:24:15 PM 32.9539 -80.2858 22° Northeast 434 499 41,000  Level Jacksonville Center
Thu 05:25:14 PM 33.0778 -80.2253 22° Northeast 455 524 41,000  Level Jacksonville Center
Thu 05:26:14 PM 33.1831 -80.1725 23° Northeast 442 509 41,000  Level Jacksonville Center
Thu 05:27:15 PM 33.2906 -80.1244 20° North 450 518 41,000  Level Jacksonville Center
Thu 05:28:15 PM 33.4019 -80.0686 23° Northeast 440 506 41,000  Level Jacksonville Center
Thu 05:29:14 PM 33.5114 -80.0153 22° Northeast 435 501 41,000  Level Jacksonville Center
Thu 05:30:14 PM 33.6231 -79.9619 22° Northeast 435 501 41,000  Level Jacksonville Center
Thu 05:31:14 PM 33.7364 -79.9056 22° Northeast 435 501 41,000  Level Jacksonville Center
Thu 05:32:14 PM 33.8456 -79.8494 23° Northeast 435 501 41,000  Level Jacksonville Center
Thu 05:33:15 PM 33.9592 -79.7953 22° Northeast 430 495 41,000  Level Jacksonville Center
Thu 05:34:14 PM 34.0683 -79.7414 22° Northeast 430 495 41,000  Level Jacksonville Center
Thu 05:35:14 PM 34.1836 -79.6819 23° Northeast 435 501 41,000  Level Jacksonville Center
Thu 05:37:05 PM 34.3956 -79.5736 23° Northeast 435 501 41,000  Level Washington Center
Thu 05:38:05 PM 34.5058 -79.5158 23° Northeast 440 506 41,000  Level Washington Center
Thu 05:39:07 PM 34.6186 -79.4558 24° Northeast 450 518 41,000  Level Washington Center
Thu 05:40:07 PM 34.7331 -79.3981 23° Northeast 463 533 41,000  Level Washington Center
Thu 05:41:07 PM 34.8497 -79.3375 23° Northeast 465 535 41,000  Level Washington Center
Thu 05:42:06 PM 34.9644 -79.2744 24° Northeast 465 535 41,000  Level Washington Center
Thu 05:43:07 PM 35.0747 -79.2161 23° Northeast 460 529 41,000  Level Washington Center
Thu 05:44:05 PM 35.1869 -79.1575 23° Northeast 440 506 41,000  Level Washington Center
Thu 05:45:05 PM 35.2914 -79.0808 31° Northeast 435 501 41,000  Level Washington Center
Thu 05:46:07 PM 35.3983 -78.9911 34° Northeast 447 514 41,000  Level Washington Center
Thu 05:47:07 PM 35.5031 -78.9039 34° Northeast 453 521 41,000  Level Washington Center
Thu 05:48:05 PM 35.6119 -78.8164 33° Northeast 459 528 41,000  Level Washington Center
Thu 05:49:05 PM 35.7167 -78.7258 35° Northeast 459 528 41,000  Level Washington Center
Thu 05:50:05 PM 35.8042 -78.6500 35° Northeast 459 528 41,000  Level Washington Center
Thu 05:51:06 PM 35.9214 -78.5519 34° Northeast 459 528 41,000  Level Washington Center
Thu 05:52:07 PM 36.0278 -78.4583 35° Northeast 459 528 41,000  Level Washington Center
Thu 05:53:05 PM 36.1344 -78.3669 35° Northeast 459 528 41,000  Level Washington Center
Thu 05:54:06 PM 36.2428 -78.2756 34° Northeast 459 528 41,000  Level Washington Center
Thu 05:55:07 PM 36.3472 -78.1836 35° Northeast 459 528 41,000  Level Washington Center
Thu 05:56:07 PM 36.4619 -78.0817 36° Northeast 459 528 41,000  Level Washington Center
Thu 05:57:05 PM 36.5639 -77.9917 35° Northeast 454 522 41,000  Level Washington Center
Thu 05:58:06 PM 36.6658 -77.9042 35° Northeast 448 516 41,000  Level Washington Center
Thu 05:59:06 PM 36.7656 -77.8164 35° Northeast 443 510 41,000  Level Washington Center
Thu 06:00:05 PM 36.8672 -77.7258 35° Northeast 443 510 41,000  Level Washington Center
Thu 06:01:06 PM 36.9711 -77.6378 34° Northeast 448 516 41,000  Level Washington Center
Thu 06:02:06 PM 37.0769 -77.5442 35° Northeast 455 524 41,000  Level Washington Center
Thu 06:03:05 PM 37.1828 -77.4506 35° Northeast 455 524 41,000  Level Washington Center
Thu 06:04:06 PM 37.2906 -77.3567 35° Northeast 460 529 41,000  Level Washington Center
Thu 06:05:07 PM 37.3983 -77.2622 35° Northeast 460 529 41,000  Level Washington Center
Thu 06:06:07 PM 37.5081 -77.1653 35° Northeast 466 536 41,000  Level Washington Center
Thu 06:07:05 PM 37.6136 -77.0653 37° Northeast 471 542 41,000  Level Washington Center
Thu 06:08:06 PM 37.7192 -76.9675 36° Northeast 471 542 41,000  Level Washington Center
Thu 06:09:06 PM 37.8222 -76.8719 36° Northeast 466 536 41,000  Level Washington Center
Thu 06:10:08 PM 37.9256 -76.7792 35° Northeast 461 531 41,000  Level Washington Center
Thu 06:11:05 PM 38.0306 -76.6831 36° Northeast 461 531 41,000  Level Washington Center
Thu 06:12:06 PM 38.1336 -76.5897 35° Northeast 455 524 41,000  Level Washington Center
Thu 06:13:07 PM 38.2364 -76.4958 36° Northeast 455 524 41,000  Level Washington Center
Thu 06:14:05 PM 38.3247 -76.4122 37° Northeast 455 524 41,000  Level Washington Center
Thu 06:15:05 PM 38.4381 -76.3100 35° Northeast 455 524 41,000  Level Washington Center
Thu 06:16:07 PM 38.5322 -76.2208 37° Northeast 455 524 41,000  Level Washington Center
Thu 06:17:07 PM 38.6411 -76.1233 35° Northeast 460 529 41,000  Level Washington Center
Thu 06:18:05 PM 38.7478 -76.0256 36° Northeast 466 536 41,000  Level Washington Center
Thu 06:19:06 PM 38.8525 -75.9222 38° Northeast 471 542 41,000 -49 Level Washington Center
Thu 06:20:07 PM 38.9589 -75.8264 35° Northeast 471 542 40,900  Descending Washington Center
Thu 06:21:05 PM 39.0611 -75.7253 38° Northeast 471 542 41,000 50 Climbing Washington Center
Thu 06:22:06 PM 39.1656 -75.6292 35° Northeast 466 536 41,000  Level Washington Center
Thu 06:23:07 PM 39.2717 -75.5300 36° Northeast 466 536 41,000 -397 Level Washington Center
Thu 06:24:07 PM 39.3758 -75.4278 37° Northeast 466 536 40,200 -1,322 Descending Washington Center
Thu 06:25:05 PM 39.4842 -75.3253 36° Northeast 472 543 38,400 -1,735 Descending Washington Center
Thu 06:27:31 PM 39.7197 -75.0919 37° Northeast 456 525 34,300 -1,559 Descending New York Center
Thu 06:28:29 PM 39.8275 -74.9875 37° Northeast 444 511 33,100 -1,613 Descending New York Center
Thu 06:29:30 PM 39.9139 -74.9036 37° Northeast 434 499 31,100 -1,033 Descending New York Center
Thu 06:30:31 PM 40.0036 -74.7869 45° Northeast 434 499 31,000 -50 Descending New York Center
Thu 06:31:31 PM 40.0869 -74.6614 49° Northeast 446 513 31,000  Level New York Center
Thu 06:32:29 PM 40.1644 -74.5219 54° Northeast 456 525 31,000 -51 Level New York Center
Thu 06:33:29 PM 40.2444 -74.3603 57° Northeast 473 544 30,900 -545 Descending New York Center
Thu 06:34:30 PM 40.3197 -74.2144 56° Northeast 473 544 29,900 -980 Descending New York Center
Thu 06:36:51 PM 40.4906 -73.8917 55° Northeast 455 524 27,600 -985 Descending Boston Center
Thu 06:37:51 PM 40.5608 -73.7539 56° Northeast 455 524 26,600 -1,000 Descending Boston Center
Thu 06:38:51 PM 40.6228 -73.6242 58° Northeast 460 529 25,600 -1,000 Descending Boston Center
Thu 06:39:51 PM 40.6950 -73.4939 54° Northeast 453 521 24,600 -1,000 Descending Boston Center
Thu 06:40:51 PM 40.7608 -73.3553 58° Northeast 448 516 23,600 -950 Descending Boston Center
Thu 06:41:51 PM 40.8514 -73.2358 45° Northeast 426 490 22,700 -1,050 Descending Boston Center
Thu 06:42:51 PM 40.9394 -73.1353 41° Northeast 415 478 21,500 -1,250 Descending Boston Center
Thu 06:43:51 PM 41.0378 -73.0564 31° Northeast 402 463 20,200 -1,150 Descending Boston Center
Thu 06:44:51 PM 41.1319 -72.9747 33° Northeast 407 468 19,200 -600 Descending Boston Center
Thu 06:45:51 PM 41.2261 -72.8983 31° Northeast 407 468 19,000 -250 Descending Boston Center
Thu 06:46:51 PM 41.3181 -72.8214 32° Northeast 393 452 18,700 -800 Descending Boston Center
Thu 06:47:51 PM 41.4142 -72.7444 31° Northeast 393 452 17,400 -1,450 Descending Boston Center
Thu 06:48:51 PM 41.5039 -72.6675 33° Northeast 388 447 15,800 -1,500 Descending Boston Center
Thu 06:49:51 PM 41.5853 -72.5956 33° Northeast 368 423 14,400 -1,273 Descending Boston Center
Thu 06:51:03 PM 41.6647 -72.5233 34° Northeast 348 400 13,000 -955 Descending Boston Center
Thu 06:52:03 PM 41.7481 -72.4317 39° Northeast 347 399 12,300 -710 Descending Boston Center
Thu 06:52:36 PM 41.8003 -72.3761 38° Northeast 360 414 11,900 -700 Descending Boston Center
Thu 06:53:03 PM 41.8336 -72.3397 39° Northeast 354 407 11,600 -806 Descending Boston Center
Thu 06:53:43 PM 41.8833 -72.2811 41° Northeast 356 410 11,000 -600 Descending Boston Center
Thu 06:54:03 PM 41.8856 -72.2783 43° Northeast 354 407 11,000  Level Boston Center
Thu 06:54:43 PM 41.9603 -72.1972 39° Northeast 356 410 11,000  Level Boston Center
Thu 06:55:03 PM 41.9853 -72.1692 40° Northeast 354 407 11,000 -985 Level Boston Center
Thu 06:55:50 PM 42.0372 -72.1075 41° Northeast 308 354 9,900 -1,412 Descending Boston Center
Thu 06:56:45 PM 42.0933 -72.0428 41° Northeast 289 333 8,600 -1,315 Descending Boston Center
Thu 06:57:03 PM 42.1100 -72.0231 41° Northeast 293 337 8,300 -1,455 Descending Boston Center
Thu 06:57:51 PM 42.1597 -71.9725 37° Northeast 281 323 7,000 -816 Descending Boston Center
Thu 06:58:46 PM 42.2136 -71.9131 39° Northeast 279 321 6,900 -250 Descending Boston Center
Thu 06:59:03 PM 42.2261 -71.8933 49° Northeast 286 329 6,700 -1,013 Descending Boston Center
Thu 07:00:03 PM 42.2903 -71.8228 39° Northeast 280 322 5,600 -850 Descending Boston Center
Thu 07:01:03 PM 42.3483 -71.7575 40° Northeast 275 316 5,000 -300 Descending Boston Center
Thu 07:02:03 PM 42.4000 -71.7006 39° Northeast 275 316 5,000 -458 Level Boston Center
Thu 07:03:14 PM 42.4667 -71.6000 48° Northeast 255 293 4,000 -1,099 Descending KA90
Thu 07:04:14 PM 42.5000 -71.5167 61° Northeast 240 276 2,600 -927 Descending KA90
Thu 07:05:17 PM 42.4833 -71.4333 105° East 208 239 2,100 -683 Descending KA90
Thu 07:06:17 PM 42.4833 -71.3667 90° East 155 178 1,200 -800 Descending KA90
Thu 07:07:17 PM 42.4667 -71.3167 114° Southeast 125 144 500 -700 Descending KA90

Login

Don't have an account? Register now (free) for customized features, flight alerts, and more!